Airfield :
LOGIN :

Register | Disclaimer

   EN    FR    IT 

 










Legend :    VFR   Marginal VFR   IFR   Intensive IFR   Very Intensive IFR
Visi :
Ceiling :
>= 8 km
>= 3000ft
5 to 8 km
1000 to 3000 ft
1500m to 5 km
500 to 1000 ft
800 to 1500m
200 to 500 ft
< 800m
< 200 ft
Symbols :   Thunderstorms  Fog  Heavy snow  Heavy precipitations  Wind > 20 kt
SIGMETs :     Misc.  Thunderstorms  Icing  Turbulence  Mountain Waves  Volcanic Ashes







- Airport Elevation : 49 ft
- IATA code : GLZ


EHGR - Gilze-Rijen Airbase

CURRENT METAR :
  • 212225Z AUTO 18001KT 9999 FEW300 10/09 Q1019 BLU

EXPIRED METARs :
  • 212155Z AUTO 19002KT 9999 OVC230 11/09 Q1019 BLU
  • 212125Z AUTO 19001KT 9999 OVC230 11/09 Q1019 BLU
  • 212056Z AUTO 16002KT 9999 FEW160 OVC260 11/09 Q1019 BLU
  • 212025Z AUTO 14003KT 9999 FEW320 SCT380 11/09 Q1019 BLU 14005KT CAVOK
  • 211955Z AUTO 13004KT 9999 OVC330 12/09 Q1019 BLU 14005KT CAVOK

TAF TAF EHGR
Valid from the 21 at 17:00 until the 22 at 05:00 UTC


211621Z 2117/2205 15005KT CAVOK
No reported NOTAMs for that airfield.



MET'MAP, your aeronautical weather chart ! - Copyright ORBIFLY December 2007 - Disclaimer

ORBIFLY MET'MAP TEAM :

Programming & Development : Alexandra Zaïnal
Concept & Development : Baudouin d'Aumeries
Co-Development & Prog : Marc-Olivier Méhu
Technical & hardware support : Manuel Goepfert

Contact : metmap@orbifly.com




SOURCES & CREDITS :

   NOAA